Time;durP1;ratioP1;P1;durP2;ratioP2;P2;SDS_P1;SDS_P2;PMS_P1;PMS_P2;Temp;Humidity;BMP_temperature;BMP_pressure;BME280_temperature;BME280_humidity;BME280_pressure;Samples;Min_cycle;Max_cycle;Signal;HPM_P1;HPM_P2
2021/03/01 00:02:15;;;;;;;15.48;9.27;;;;;;;;;;4934812;29;20098;-74
2021/03/01 00:04:42;;;;;;;15.90;9.45;;;;;;;;;;4937440;29;20066;-74
2021/03/01 00:07:08;;;;;;;15.82;9.82;;;;;;;;;;4953219;29;20140;-74
2021/03/01 00:09:34;;;;;;;15.55;9.23;;;;;;;;;;4938020;29;20055;-74
2021/03/01 00:12:00;;;;;;;17.50;9.10;;;;;;;;;;4953684;28;20043;-74
2021/03/01 00:14:26;;;;;;;16.63;9.38;;;;;;;;;;4955206;28;20114;-74
2021/03/01 00:16:52;;;;;;;15.60;9.23;;;;;;;;;;4934123;29;20056;-74
2021/03/01 00:19:19;;;;;;;17.10;10.23;;;;;;;;;;4934690;29;20059;-74
2021/03/01 00:21:45;;;;;;;15.02;9.45;;;;;;;;;;4935941;29;20055;-74
2021/03/01 00:24:11;;;;;;;14.73;8.85;;;;;;;;;;4940206;29;20044;-74
2021/03/01 00:26:37;;;;;;;19.17;9.77;;;;;;;;;;4935135;29;20495;-73
2021/03/01 00:29:03;;;;;;;17.55;9.38;;;;;;;;;;4935434;29;20118;-73
2021/03/01 00:31:29;;;;;;;15.50;9.88;;;;;;;;;;4935664;29;20055;-73
2021/03/01 00:33:55;;;;;;;14.40;9.25;;;;;;;;;;4935393;29;20043;-73
2021/03/01 00:36:21;;;;;;;20.73;10.77;;;;;;;;;;4934215;29;20087;-73
2021/03/01 00:38:47;;;;;;;18.23;10.07;;;;;;;;;;4935445;29;20060;-74
2021/03/01 00:41:13;;;;;;;16.30;10.07;;;;;;;;;;4935473;29;20122;-74
2021/03/01 00:43:40;;;;;;;18.48;10.43;;;;;;;;;;4935490;29;20047;-73
2021/03/01 00:46:06;;;;;;;20.17;10.55;;;;;;;;;;4933332;29;20095;-73
2021/03/01 00:48:32;;;;;;;15.35;9.50;;;;;;;;;;4935317;29;20055;-74
2021/03/01 00:50:59;;;;;;;17.48;10.88;;;;;;;;;;4934726;29;20474;-75
2021/03/01 00:53:27;;;;;;;18.40;10.68;;;;;;;;;;4935171;29;20059;-74
2021/03/01 00:55:53;;;;;;;16.75;10.63;;;;;;;;;;4933104;29;20083;-74
2021/03/01 00:58:19;;;;;;;16.92;10.68;;;;;;;;;;4929850;28;20118;-74
2021/03/01 01:00:47;;;;;;;14.73;9.23;;;;;;;;;;4953110;29;20051;-74
2021/03/01 01:03:14;;;;;;;19.73;11.30;;;;;;;;;;4952855;28;20466;-74
2021/03/01 01:05:40;;;;;;;18.20;10.13;;;;;;;;;;4952282;29;20055;-74
2021/03/01 01:08:08;;;;;;;19.08;10.90;;;;;;;;;;4952738;28;20469;-74
2021/03/01 01:10:35;;;;;;;20.40;10.45;;;;;;;;;;4936339;29;20147;-74
2021/03/01 01:13:01;;;;;;;16.42;9.93;;;;;;;;;;4952661;29;20053;-74
2021/03/01 01:15:27;;;;;;;18.75;10.40;;;;;;;;;;4952156;29;20091;-74
2021/03/01 01:17:53;;;;;;;16.05;9.60;;;;;;;;;;4953917;28;20106;-74
2021/03/01 01:20:20;;;;;;;20.10;10.73;;;;;;;;;;4953662;28;20521;-74
2021/03/01 01:22:46;;;;;;;16.42;10.13;;;;;;;;;;4953826;28;20051;-74
2021/03/01 01:25:14;;;;;;;17.90;9.63;;;;;;;;;;4953428;28;20062;-74
2021/03/01 01:27:40;;;;;;;17.52;10.00;;;;;;;;;;4952444;28;20055;-74
2021/03/01 01:30:11;;;;;;;17.50;9.75;;;;;;;;;;4936566;29;20094;-74
2021/03/01 01:32:37;;;;;;;16.83;10.50;;;;;;;;;;4953596;28;20055;-74
2021/03/01 01:35:06;;;;;;;19.83;10.02;;;;;;;;;;4953256;28;20051;-73
2021/03/01 01:37:32;;;;;;;17.05;10.65;;;;;;;;;;4953214;28;20055;-73
2021/03/01 01:39:58;;;;;;;20.70;10.23;;;;;;;;;;4949686;28;20134;-73
2021/03/01 01:42:24;;;;;;;24.02;12.15;;;;;;;;;;4934489;29;20079;-73
2021/03/01 01:44:50;;;;;;;17.75;10.48;;;;;;;;;;4933282;29;20052;-73
2021/03/01 01:47:16;;;;;;;22.35;10.00;;;;;;;;;;4932457;29;20102;-73
2021/03/01 01:49:42;;;;;;;17.65;11.38;;;;;;;;;;4933192;29;20056;-73
2021/03/01 01:52:08;;;;;;;17.88;10.63;;;;;;;;;;4934283;29;20099;-73
2021/03/01 01:54:35;;;;;;;20.02;10.93;;;;;;;;;;4917659;29;20467;-74
2021/03/01 01:57:02;;;;;;;19.10;10.13;;;;;;;;;;4932402;29;20487;-74
2021/03/01 01:59:28;;;;;;;19.10;11.18;;;;;;;;;;4934237;29;20053;-73
2021/03/01 02:01:54;;;;;;;19.27;11.32;;;;;;;;;;4917223;29;20083;-72
2021/03/01 02:04:27;;;;;;;17.02;10.25;;;;;;;;;;4935961;29;20051;-73
2021/03/01 02:07:26;;;;;;;18.80;10.48;;;;;;;;;;4920534;29;20051;-74
2021/03/01 02:10:21;;;;;;;17.48;10.30;;;;;;;;;;4936803;29;20241;-74
2021/03/01 02:13:21;;;;;;;20.10;10.30;;;;;;;;;;4936864;29;20467;-74
2021/03/01 02:15:55;;;;;;;19.48;10.95;;;;;;;;;;4937431;29;20285;-74
2021/03/01 02:18:21;;;;;;;19.35;10.45;;;;;;;;;;4937947;29;20056;-74
2021/03/01 02:20:47;;;;;;;21.20;10.90;;;;;;;;;;4949942;29;20055;-74
2021/03/01 02:23:15;;;;;;;18.08;10.95;;;;;;;;;;4955671;29;20115;-74
2021/03/01 02:25:48;;;;;;;16.50;10.40;;;;;;;;;;4955208;29;20051;-74
2021/03/01 02:28:15;;;;;;;17.48;10.00;;;;;;;;;;4940457;29;20605;-74
2021/03/01 02:30:46;;;;;;;17.92;9.85;;;;;;;;;;4944939;28;20438;-74
2021/03/01 02:33:14;;;;;;;16.95;10.93;;;;;;;;;;4921172;29;20055;-74
2021/03/01 02:35:42;;;;;;;18.13;10.07;;;;;;;;;;4920378;29;20062;-74
2021/03/01 02:38:08;;;;;;;20.50;10.07;;;;;;;;;;4940002;29;20102;-73
2021/03/01 02:40:35;;;;;;;17.05;9.75;;;;;;;;;;4939815;29;20075;-74
2021/03/01 02:43:02;;;;;;;17.55;10.00;;;;;;;;;;4939522;29;20125;-74
2021/03/01 02:45:28;;;;;;;20.17;10.55;;;;;;;;;;4923435;29;20059;-74
2021/03/01 02:47:59;;;;;;;19.33;9.32;;;;;;;;;;4954839;29;20055;-74
2021/03/01 02:50:26;;;;;;;16.90;10.82;;;;;;;;;;4940106;29;20055;-74
2021/03/01 02:52:52;;;;;;;15.70;9.50;;;;;;;;;;4939638;29;20070;-74
2021/03/01 02:55:18;;;;;;;18.02;10.60;;;;;;;;;;4954765;29;20086;-74
2021/03/01 02:57:44;;;;;;;16.42;10.38;;;;;;;;;;4926562;29;20497;-74
2021/03/01 03:00:12;;;;;;;20.67;11.55;;;;;;;;;;4920172;29;20083;-74
2021/03/01 03:02:38;;;;;;;18.92;10.15;;;;;;;;;;4920262;29;20052;-74
2021/03/01 03:05:07;;;;;;;18.73;10.90;;;;;;;;;;4920026;29;20056;-74
2021/03/01 03:07:34;;;;;;;20.92;11.05;;;;;;;;;;4948445;29;20050;-75
2021/03/01 03:10:00;;;;;;;23.55;10.95;;;;;;;;;;4962294;23;20055;-77
2021/03/01 03:12:26;;;;;;;19.02;10.50;;;;;;;;;;4940834;29;20050;-77
2021/03/01 03:14:53;;;;;;;18.65;10.02;;;;;;;;;;4940966;29;20044;-77
2021/03/01 03:17:19;;;;;;;22.30;10.90;;;;;;;;;;4949063;28;20043;-77
2021/03/01 03:19:45;;;;;;;18.77;9.95;;;;;;;;;;4960293;28;20089;-78
2021/03/01 03:22:11;;;;;;;17.67;9.90;;;;;;;;;;4959941;28;20567;-77
2021/03/01 03:24:38;;;;;;;22.08;11.15;;;;;;;;;;4942425;28;20101;-77
2021/03/01 03:27:05;;;;;;;22.38;10.80;;;;;;;;;;4959014;28;20050;-77
2021/03/01 03:29:31;;;;;;;19.83;10.77;;;;;;;;;;4959471;28;20055;-77
2021/03/01 03:31:57;;;;;;;20.27;9.98;;;;;;;;;;4975798;28;20106;-77
2021/03/01 03:34:24;;;;;;;21.30;10.65;;;;;;;;;;4944017;28;20429;-78
2021/03/01 03:37:05;;;;;;;18.33;9.98;;;;;;;;;;4943164;28;20102;-76
2021/03/01 03:39:33;;;;;;;18.70;9.75;;;;;;;;;;4943719;28;20054;-77
2021/03/01 03:41:59;;;;;;;22.88;11.10;;;;;;;;;;4943317;28;20055;-78
2021/03/01 03:44:25;;;;;;;18.42;10.00;;;;;;;;;;4939891;29;20078;-78
2021/03/01 03:46:52;;;;;;;19.35;10.07;;;;;;;;;;4939654;29;20110;-78
2021/03/01 03:49:18;;;;;;;18.80;10.57;;;;;;;;;;4940123;29;20055;-78
2021/03/01 03:51:44;;;;;;;21.13;9.65;;;;;;;;;;4940239;29;20288;-78
2021/03/01 03:54:29;;;;;;;17.95;10.43;;;;;;;;;;4940338;29;20048;-77
2021/03/01 03:56:56;;;;;;;18.40;10.25;;;;;;;;;;4924011;29;20051;-78
2021/03/01 03:59:25;;;;;;;21.23;10.50;;;;;;;;;;4939603;29;20047;-77
2021/03/01 04:01:53;;;;;;;20.40;11.18;;;;;;;;;;4921745;29;20518;-77
2021/03/01 04:04:20;;;;;;;18.75;9.77;;;;;;;;;;4926951;28;20067;-75
2021/03/01 04:06:47;;;;;;;19.95;10.40;;;;;;;;;;4926396;29;20051;-78
2021/03/01 04:09:14;;;;;;;23.08;11.15;;;;;;;;;;4941135;29;20425;-78
2021/03/01 04:11:44;;;;;;;17.77;10.05;;;;;;;;;;4941884;29;20080;-78
2021/03/01 04:14:15;;;;;;;20.27;10.77;;;;;;;;;;4933981;28;20125;-78
2021/03/01 04:16:45;;;;;;;21.00;9.95;;;;;;;;;;4979741;28;20035;-74
2021/03/01 04:19:11;;;;;;;19.58;9.88;;;;;;;;;;4967598;28;20039;-74
2021/03/01 04:21:37;;;;;;;18.38;9.88;;;;;;;;;;4983343;28;20035;-74
2021/03/01 04:24:04;;;;;;;18.83;9.63;;;;;;;;;;4967372;28;20038;-74
2021/03/01 04:26:30;;;;;;;19.25;9.65;;;;;;;;;;4966192;28;20030;-75
2021/03/01 04:28:56;;;;;;;17.58;10.57;;;;;;;;;;4967114;28;20038;-74
2021/03/01 04:31:22;;;;;;;20.00;10.25;;;;;;;;;;4983127;28;20055;-74
2021/03/01 04:33:49;;;;;;;19.35;10.25;;;;;;;;;;4982315;28;20037;-73
2021/03/01 04:36:15;;;;;;;20.42;11.88;;;;;;;;;;4966581;28;20058;-74
2021/03/01 04:38:41;;;;;;;17.38;9.82;;;;;;;;;;4983016;28;20030;-74
2021/03/01 04:41:07;;;;;;;18.25;9.52;;;;;;;;;;4983063;28;20054;-74
2021/03/01 04:43:37;;;;;;;22.85;10.43;;;;;;;;;;4996368;28;20054;-73
2021/03/01 04:46:04;;;;;;;19.85;10.52;;;;;;;;;;4982019;28;20058;-74
2021/03/01 04:48:30;;;;;;;21.35;10.25;;;;;;;;;;4967162;28;20058;-74
2021/03/01 04:50:57;;;;;;;17.85;10.75;;;;;;;;;;4982637;28;20031;-73
2021/03/01 04:53:23;;;;;;;20.92;10.75;;;;;;;;;;4966988;28;20034;-75
2021/03/01 04:55:49;;;;;;;21.55;11.25;;;;;;;;;;4966292;28;20034;-75
2021/03/01 04:58:16;;;;;;;18.45;10.15;;;;;;;;;;4963732;28;20031;-75
2021/03/01 05:00:43;;;;;;;22.27;11.07;;;;;;;;;;4976034;28;20141;-75
2021/03/01 05:03:09;;;;;;;22.60;11.63;;;;;;;;;;4963300;28;20059;-74
2021/03/01 05:05:35;;;;;;;17.35;10.60;;;;;;;;;;4947226;28;20055;-75
2021/03/01 05:08:03;;;;;;;20.95;11.13;;;;;;;;;;4963185;28;20047;-76
2021/03/01 05:10:30;;;;;;;19.95;10.23;;;;;;;;;;4963026;28;20038;-75
2021/03/01 05:12:56;;;;;;;20.70;11.15;;;;;;;;;;4963093;28;20036;-75
2021/03/01 05:15:22;;;;;;;18.85;10.32;;;;;;;;;;4962515;28;20055;-75
2021/03/01 05:17:48;;;;;;;18.98;10.02;;;;;;;;;;4951801;28;20059;-74
2021/03/01 05:20:15;;;;;;;19.30;10.35;;;;;;;;;;4962883;28;20035;-75
2021/03/01 05:22:41;;;;;;;18.90;10.80;;;;;;;;;;4963009;28;20066;-75
2021/03/01 05:25:08;;;;;;;19.60;10.30;;;;;;;;;;4962546;28;20039;-75
2021/03/01 05:27:34;;;;;;;19.38;11.02;;;;;;;;;;4962687;28;20059;-74
2021/03/01 05:30:03;;;;;;;22.45;10.57;;;;;;;;;;4969329;28;20047;-78
2021/03/01 05:32:29;;;;;;;20.30;10.40;;;;;;;;;;4923809;29;20102;-78
2021/03/01 05:34:56;;;;;;;23.33;10.63;;;;;;;;;;4954703;29;20051;-78
2021/03/01 05:37:22;;;;;;;19.23;10.18;;;;;;;;;;4921196;29;20059;-78
2021/03/01 05:39:48;;;;;;;20.30;10.15;;;;;;;;;;4954284;29;20400;-77
2021/03/01 05:42:19;;;;;;;17.23;9.75;;;;;;;;;;4938692;29;20493;-78
2021/03/01 05:44:45;;;;;;;22.88;11.85;;;;;;;;;;4939275;29;20406;-77
2021/03/01 05:47:12;;;;;;;22.88;12.05;;;;;;;;;;4921903;29;20110;-78
2021/03/01 05:49:39;;;;;;;22.45;11.43;;;;;;;;;;4938437;29;20059;-79
2021/03/01 05:52:05;;;;;;;24.30;12.40;;;;;;;;;;4923613;29;20055;-77
2021/03/01 05:54:34;;;;;;;23.92;11.38;;;;;;;;;;4938175;29;20102;-78
2021/03/01 05:57:00;;;;;;;21.40;11.88;;;;;;;;;;4922299;29;20126;-77
2021/03/01 05:59:26;;;;;;;23.25;11.88;;;;;;;;;;4938829;29;20102;-77
2021/03/01 06:01:53;;;;;;;21.13;11.65;;;;;;;;;;4923997;29;20110;-78
2021/03/01 06:04:19;;;;;;;19.70;11.00;;;;;;;;;;4925348;29;20047;-78
2021/03/01 06:06:45;;;;;;;23.08;11.00;;;;;;;;;;4940847;29;20055;-79
2021/03/01 06:09:11;;;;;;;20.25;11.15;;;;;;;;;;4924728;29;20078;-77
2021/03/01 06:11:37;;;;;;;24.52;12.48;;;;;;;;;;4924316;29;20051;-77
2021/03/01 06:14:04;;;;;;;19.63;11.30;;;;;;;;;;4940103;29;20047;-78
2021/03/01 06:16:31;;;;;;;21.65;12.02;;;;;;;;;;4923071;29;20051;-77
2021/03/01 06:18:57;;;;;;;21.77;11.88;;;;;;;;;;4938549;29;20134;-77
2021/03/01 06:21:24;;;;;;;24.63;11.65;;;;;;;;;;4937047;29;20047;-76
2021/03/01 06:23:51;;;;;;;20.48;11.73;;;;;;;;;;4921171;29;20050;-76
2021/03/01 06:26:29;;;;;;;22.05;11.60;;;;;;;;;;4920749;29;20052;-77
2021/03/01 06:29:04;;;;;;;20.50;10.63;;;;;;;;;;4937088;29;20122;-76
2021/03/01 06:31:44;;;;;;;21.25;10.32;;;;;;;;;;4957357;28;20125;-77
2021/03/01 06:34:32;;;;;;;22.02;10.30;;;;;;;;;;4972750;28;20066;-77
2021/03/01 06:37:08;;;;;;;24.13;10.57;;;;;;;;;;4972513;28;20501;-77
2021/03/01 06:39:38;;;;;;;23.30;10.98;;;;;;;;;;4973478;28;20074;-78
2021/03/01 06:42:20;;;;;;;22.88;10.65;;;;;;;;;;4957595;28;20117;-78
2021/03/01 06:44:58;;;;;;;22.45;11.52;;;;;;;;;;4973660;28;20062;-78
2021/03/01 06:47:47;;;;;;;23.80;11.57;;;;;;;;;;4973760;28;20106;-77
2021/03/01 06:50:37;;;;;;;19.73;11.57;;;;;;;;;;4977772;28;20051;-78
2021/03/01 06:53:14;;;;;;;23.20;11.32;;;;;;;;;;4947930;29;20075;-78
2021/03/01 06:55:59;;;;;;;21.60;11.20;;;;;;;;;;4957117;28;20074;-76
2021/03/01 06:58:29;;;;;;;22.10;11.57;;;;;;;;;;4957221;29;20118;-77
2021/03/01 07:00:59;;;;;;;27.50;13.82;;;;;;;;;;4941537;29;20118;-78
2021/03/01 07:03:25;;;;;;;23.17;12.35;;;;;;;;;;4957368;28;20047;-78
2021/03/01 07:05:53;;;;;;;22.73;12.65;;;;;;;;;;4940464;29;20494;-78
2021/03/01 07:08:49;;;;;;;23.80;12.32;;;;;;;;;;4940516;29;20051;-76
2021/03/01 07:11:20;;;;;;;23.92;11.90;;;;;;;;;;4955248;29;20089;-75
2021/03/01 07:13:58;;;;;;;30.40;12.90;;;;;;;;;;4938740;29;20130;-75
2021/03/01 07:16:24;;;;;;;30.67;13.35;;;;;;;;;;4937638;29;20055;-75
2021/03/01 07:18:51;;;;;;;27.17;12.63;;;;;;;;;;4938210;28;20059;-75
2021/03/01 07:21:18;;;;;;;25.20;12.98;;;;;;;;;;4922449;29;20055;-75
2021/03/01 07:23:46;;;;;;;29.60;12.57;;;;;;;;;;4938356;29;20082;-75
2021/03/01 07:26:14;;;;;;;23.20;12.63;;;;;;;;;;4936802;29;20106;-75
2021/03/01 07:28:42;;;;;;;24.58;13.65;;;;;;;;;;4953841;28;20113;-75
2021/03/01 07:31:10;;;;;;;25.25;13.25;;;;;;;;;;4953459;29;20414;-76
2021/03/01 07:33:38;;;;;;;27.77;12.73;;;;;;;;;;4943879;29;20051;-75
2021/03/01 07:36:06;;;;;;;26.45;12.68;;;;;;;;;;4921508;29;20428;-74
2021/03/01 07:38:33;;;;;;;25.30;12.95;;;;;;;;;;4937609;29;20047;-75
2021/03/01 07:41:01;;;;;;;22.55;13.00;;;;;;;;;;4936644;29;20054;-74
2021/03/01 07:43:27;;;;;;;24.80;12.63;;;;;;;;;;4937081;29;20139;-75
2021/03/01 07:45:53;;;;;;;22.50;11.13;;;;;;;;;;4937423;29;20055;-75
2021/03/01 07:48:20;;;;;;;23.63;12.00;;;;;;;;;;4954730;28;20051;-75
2021/03/01 07:50:47;;;;;;;19.08;11.50;;;;;;;;;;4956957;28;20134;-77
2021/03/01 07:53:51;;;;;;;17.13;10.65;;;;;;;;;;4955854;28;20078;-75
2021/03/01 07:56:23;;;;;;;21.42;11.25;;;;;;;;;;4970192;28;20058;-75
2021/03/01 07:58:56;;;;;;;18.70;10.60;;;;;;;;;;4953775;28;20083;-75
2021/03/01 08:01:22;;;;;;;;;;;;;;;;;;4936190;29;20051;-75
2021/03/01 08:03:48;;;;;;;18.77;10.70;;;;;;;;;;4952614;29;19990;-74
2021/03/01 08:06:15;;;;;;;19.20;10.80;;;;;;;;;;4933820;28;20101;-75
2021/03/01 08:08:49;;;;;;;17.08;10.25;;;;;;;;;;4941675;28;20062;-75
2021/03/01 08:11:15;;;;;;;19.75;10.25;;;;;;;;;;4972746;28;20121;-74
2021/03/01 08:13:41;;;;;;;17.90;10.30;;;;;;;;;;4957066;28;20043;-75
2021/03/01 08:16:17;;;;;;;19.90;10.93;;;;;;;;;;4960553;28;20114;-75
2021/03/01 08:18:53;;;;;;;19.10;11.70;;;;;;;;;;4937053;28;20598;-76
2021/03/01 08:21:20;;;;;;;18.23;10.40;;;;;;;;;;4939621;29;20113;-74
2021/03/01 08:23:47;;;;;;;19.70;10.55;;;;;;;;;;4938311;29;20533;-74
2021/03/01 08:26:31;;;;;;;19.23;11.02;;;;;;;;;;4948225;28;20063;-72
2021/03/01 08:29:01;;;;;;;20.80;10.85;;;;;;;;;;4955238;28;20070;-75
2021/03/01 08:31:32;;;;;;;21.50;11.73;;;;;;;;;;4926985;29;20070;-72
2021/03/01 08:34:29;;;;;;;17.85;10.30;;;;;;;;;;4964846;28;20062;-73
2021/03/01 08:36:56;;;;;;;19.33;11.27;;;;;;;;;;4946907;28;20051;-72
2021/03/01 08:39:51;;;;;;;19.33;10.85;;;;;;;;;;4950118;29;20493;-74
2021/03/01 08:42:55;;;;;;;19.77;11.10;;;;;;;;;;4924495;29;20051;-74
2021/03/01 08:45:27;;;;;;;22.13;10.52;;;;;;;;;;4949187;29;20070;-72
2021/03/01 08:47:58;;;;;;;17.65;10.02;;;;;;;;;;4950577;29;20063;-73
2021/03/01 08:50:28;;;;;;;15.82;11.13;;;;;;;;;;4942956;28;20078;-72
2021/03/01 08:53:10;;;;;;;18.42;10.45;;;;;;;;;;4952010;28;20047;-73
2021/03/01 08:55:37;;;;;;;16.48;9.25;;;;;;;;;;4950021;29;20106;-75
2021/03/01 08:58:07;;;;;;;17.20;9.30;;;;;;;;;;4910184;29;20051;-76
2021/03/01 09:00:37;;;;;;;14.82;9.50;;;;;;;;;;4925852;29;20055;-73
2021/03/01 09:03:12;;;;;;;16.05;9.55;;;;;;;;;;4929418;29;20441;-74
2021/03/01 09:05:40;;;;;;;15.90;10.48;;;;;;;;;;4917413;29;21113;-72
2021/03/01 09:08:27;;;;;;;15.68;8.93;;;;;;;;;;4934327;29;20059;-73
2021/03/01 09:10:58;;;;;;;17.55;10.15;;;;;;;;;;4948399;29;20063;-71
2021/03/01 09:13:28;;;;;;;15.23;10.00;;;;;;;;;;4934826;29;20102;-75
2021/03/01 09:15:55;;;;;;;15.18;8.93;;;;;;;;;;4924075;29;20118;-76
2021/03/01 09:18:26;;;;;;;14.00;9.57;;;;;;;;;;4934049;29;20110;-75
2021/03/01 09:20:55;;;;;;;14.25;9.55;;;;;;;;;;4921826;29;20091;-74
2021/03/01 09:23:47;;;;;;;15.07;10.05;;;;;;;;;;4929182;29;20410;-73
2021/03/01 09:26:39;;;;;;;17.33;10.18;;;;;;;;;;4950353;29;20142;-73
2021/03/01 09:29:17;;;;;;;14.68;9.50;;;;;;;;;;4947019;28;20115;-73
2021/03/01 09:31:48;;;;;;;13.73;9.60;;;;;;;;;;4949669;29;20054;-72
2021/03/01 09:34:16;;;;;;;15.05;8.50;;;;;;;;;;4941287;28;20137;-72
2021/03/01 09:36:52;;;;;;;14.30;9.77;;;;;;;;;;4956062;28;20047;-72
2021/03/01 09:39:25;;;;;;;15.10;9.38;;;;;;;;;;4956590;23;20106;-73
2021/03/01 09:41:52;;;;;;;;;;;;;;;;;;4921302;29;20039;-73
2021/03/01 09:44:28;;;;;;;14.07;8.57;;;;;;;;;;4925055;29;20303;-73
2021/03/01 09:46:59;;;;;;;15.85;8.95;;;;;;;;;;4917504;29;20055;-73
2021/03/01 09:49:28;;;;;;;15.02;8.68;;;;;;;;;;4919690;29;20082;-74
2021/03/01 09:51:54;;;;;;;13.63;8.60;;;;;;;;;;4909382;29;20055;-74
2021/03/01 09:54:25;;;;;;;19.63;10.32;;;;;;;;;;4911273;29;20061;-74
2021/03/01 09:56:54;;;;;;;15.63;9.40;;;;;;;;;;4936328;28;20057;-74
2021/03/01 09:59:37;;;;;;;14.85;9.88;;;;;;;;;;4919586;29;20151;-74
2021/03/01 10:02:20;;;;;;;13.05;8.68;;;;;;;;;;4949805;28;20130;-75
2021/03/01 10:04:48;;;;;;;19.60;9.07;;;;;;;;;;4920484;29;20043;-76
2021/03/01 10:07:36;;;;;;;13.68;8.27;;;;;;;;;;4950369;28;20518;-75
2021/03/01 10:10:13;;;;;;;14.15;9.00;;;;;;;;;;4920266;29;20110;-76
2021/03/01 10:12:49;;;;;;;15.80;9.38;;;;;;;;;;4934663;28;20418;-75
2021/03/01 10:15:21;;;;;;;14.80;8.40;;;;;;;;;;4920120;29;20091;-75
2021/03/01 10:18:02;;;;;;;14.35;8.73;;;;;;;;;;4919407;29;20520;-75
2021/03/01 10:20:29;;;;;;;15.18;9.85;;;;;;;;;;4911180;29;20526;-80
2021/03/01 10:23:01;;;;;;;14.57;8.70;;;;;;;;;;4921702;28;20110;-81
2021/03/01 10:25:48;;;;;;;14.98;9.88;;;;;;;;;;4933504;29;20519;-81
2021/03/01 10:28:24;;;;;;;14.52;9.90;;;;;;;;;;4956312;29;20055;-81
2021/03/01 10:31:00;;;;;;;16.30;9.18;;;;;;;;;;4972416;28;20058;-82
2021/03/01 10:33:27;;;;;;;13.77;9.00;;;;;;;;;;4921383;29;20048;-81
2021/03/01 10:36:10;;;;;;;12.20;8.32;;;;;;;;;;4930205;29;20086;-81
2021/03/01 10:39:05;;;;;;;15.45;9.73;;;;;;;;;;4925386;29;20055;-82
2021/03/01 10:41:43;;;;;;;11.45;8.23;;;;;;;;;;4944628;29;20066;-81
2021/03/01 10:44:10;;;;;;;13.65;8.65;;;;;;;;;;4940160;29;20052;-79
2021/03/01 10:46:42;;;;;;;14.05;8.48;;;;;;;;;;4924420;29;20043;-80
2021/03/01 10:49:17;;;;;;;14.25;8.68;;;;;;;;;;4910780;28;20910;-79
2021/03/01 10:51:44;;;;;;;13.98;9.10;;;;;;;;;;4947555;28;20043;-79
2021/03/01 10:54:11;;;;;;;13.13;9.27;;;;;;;;;;4923891;29;20058;-79
2021/03/01 10:56:37;;;;;;;11.07;8.13;;;;;;;;;;4924061;29;20047;-79
2021/03/01 10:59:04;;;;;;;11.25;7.72;;;;;;;;;;4923927;29;20059;-79
2021/03/01 11:01:42;;;;;;;11.32;7.38;;;;;;;;;;4939673;29;20642;-77
2021/03/01 11:04:10;;;;;;;11.75;7.18;;;;;;;;;;4963395;28;20051;-78
2021/03/01 11:06:37;;;;;;;10.20;7.13;;;;;;;;;;4938752;29;20099;-78
2021/03/01 11:09:05;;;;;;;7.78;6.13;;;;;;;;;;4939001;29;20070;-78
2021/03/01 11:11:32;;;;;;;10.25;6.32;;;;;;;;;;4948018;29;20050;-79
2021/03/01 11:13:59;;;;;;;9.88;6.50;;;;;;;;;;4936896;29;20070;-79
2021/03/01 11:16:25;;;;;;;8.25;5.85;;;;;;;;;;4938272;28;20055;-78
2021/03/01 11:18:52;;;;;;;7.82;5.72;;;;;;;;;;4917389;29;20047;-77
2021/03/01 11:21:18;;;;;;;9.40;6.10;;;;;;;;;;4937114;29;20137;-77
2021/03/01 11:23:46;;;;;;;8.73;5.18;;;;;;;;;;4938337;29;20054;-87
2021/03/01 11:26:15;;;;;;;10.30;6.07;;;;;;;;;;4942474;28;20555;-83
2021/03/01 11:28:43;;;;;;;8.52;5.40;;;;;;;;;;4952727;28;20058;-83
2021/03/01 11:31:10;;;;;;;8.35;5.43;;;;;;;;;;4949633;29;20062;-83
2021/03/01 11:33:38;;;;;;;5.22;3.83;;;;;;;;;;4920919;29;20574;-83
2021/03/01 11:36:05;;;;;;;27.63;14.07;;;;;;;;;;4942250;29;20118;-83
2021/03/01 11:38:41;;;;;;;9.18;5.60;;;;;;;;;;4943797;28;20043;-84
2021/03/01 11:41:07;;;;;;;26.85;13.48;;;;;;;;;;4926330;28;20055;-84
2021/03/01 11:43:45;;;;;;;8.98;3.90;;;;;;;;;;4940900;29;20054;-82
2021/03/01 11:46:12;;;;;;;5.65;4.20;;;;;;;;;;4938833;29;20058;-82
2021/03/01 11:48:39;;;;;;;5.82;3.90;;;;;;;;;;4939807;29;20055;-83
2021/03/01 11:51:06;;;;;;;7.05;4.15;;;;;;;;;;4939580;28;20146;-83
2021/03/01 11:53:32;;;;;;;6.53;4.10;;;;;;;;;;4939879;29;20099;-82
2021/03/01 11:55:59;;;;;;;4.60;3.63;;;;;;;;;;4938952;29;20070;-81
2021/03/01 11:58:26;;;;;;;5.47;4.00;;;;;;;;;;4940029;29;20059;-82
2021/03/01 12:00:52;;;;;;;10.20;5.50;;;;;;;;;;4924213;28;20058;-81
2021/03/01 12:03:20;;;;;;;7.32;5.03;;;;;;;;;;4918195;29;20130;-80
2021/03/01 12:05:47;;;;;;;6.38;4.43;;;;;;;;;;4934375;28;20047;-82
2021/03/01 12:08:13;;;;;;;7.30;5.53;;;;;;;;;;4944029;28;20054;-84
2021/03/01 12:10:39;;;;;;;5.78;4.97;;;;;;;;;;4965736;23;20042;-77
2021/03/01 12:13:07;;;;;;;7.15;4.78;;;;;;;;;;4993155;28;20061;-78
2021/03/01 12:16:23;;;;;;;6.55;4.50;;;;;;;;;;4966434;28;20055;-78
2021/03/01 12:19:49;;;;;;;7.40;4.38;;;;;;;;;;4971004;28;20074;-77
2021/03/01 12:22:41;;;;;;;8.05;4.57;;;;;;;;;;4950505;28;20118;-79
2021/03/01 12:25:14;;;;;;;7.32;5.25;;;;;;;;;;4952097;28;20572;-79
2021/03/01 12:28:16;;;;;;;7.60;4.65;;;;;;;;;;4954984;29;20513;-76
2021/03/01 12:31:44;;;;;;;7.13;4.97;;;;;;;;;;4950875;28;20043;-76
2021/03/01 12:35:12;;;;;;;6.57;5.07;;;;;;;;;;4884221;29;20137;-76
2021/03/01 12:38:25;;;;;;;7.35;5.00;;;;;;;;;;4820523;29;20070;-74
2021/03/01 12:40:53;;;;;;;5.78;4.80;;;;;;;;;;4826804;29;20049;-74
2021/03/01 12:44:34;;;;;;;;;;;;;;;;;;;;;
2021/03/01 12:46:46;;;;;;;7.60;5.32;;;;;;;;;;4904447;29;20044;-74
2021/03/01 12:49:14;;;;;;;6.95;4.60;;;;;;;;;;4879145;29;20067;-74
2021/03/01 12:51:42;;;;;;;6.90;4.88;;;;;;;;;;4883856;29;20111;-72
2021/03/01 12:54:12;;;;;;;11.25;5.35;;;;;;;;;;4876613;29;20087;-78
2021/03/01 12:56:52;;;;;;;7.20;4.97;;;;;;;;;;4883495;29;20068;-73
2021/03/01 12:59:18;;;;;;;6.68;4.95;;;;;;;;;;4878555;29;20107;-75
2021/03/01 13:01:45;;;;;;;7.15;4.72;;;;;;;;;;4913204;29;20072;-77
2021/03/01 13:04:14;;;;;;;7.88;5.70;;;;;;;;;;4883945;29;20048;-76
2021/03/01 13:10:32;;;;;;;6.20;4.45;;;;;;;;;;4953463;29;20194;-79
2021/03/01 13:13:29;;;;;;;5.80;4.80;;;;;;;;;;4922265;29;20524;-78
2021/03/01 13:16:29;;;;;;;5.28;4.22;;;;;;;;;;4946918;29;20043;-77
2021/03/01 13:19:00;;;;;;;5.45;3.83;;;;;;;;;;4932299;29;20498;-75
2021/03/01 13:21:27;;;;;;;5.78;4.40;;;;;;;;;;4910606;29;20558;-75
2021/03/01 13:23:57;;;;;;;5.50;4.22;;;;;;;;;;4921723;29;20058;-77
2021/03/01 13:26:24;;;;;;;4.22;3.83;;;;;;;;;;4926572;29;20066;-77
2021/03/01 13:28:53;;;;;;;4.53;3.97;;;;;;;;;;4951849;28;20062;-77
2021/03/01 13:31:19;;;;;;;4.57;4.05;;;;;;;;;;4938627;28;20043;-76
2021/03/01 13:33:46;;;;;;;4.63;3.47;;;;;;;;;;4952205;28;20509;-76
2021/03/01 13:36:12;;;;;;;4.05;3.65;;;;;;;;;;4951368;28;20054;-76
2021/03/01 13:38:38;;;;;;;4.97;4.05;;;;;;;;;;4952174;28;20055;-76
2021/03/01 13:41:05;;;;;;;6.28;3.95;;;;;;;;;;4929791;29;20050;-73
2021/03/01 13:43:31;;;;;;;7.22;3.95;;;;;;;;;;4951685;28;20051;-71
2021/03/01 13:45:57;;;;;;;3.97;3.58;;;;;;;;;;4951020;28;20055;-69
2021/03/01 13:48:23;;;;;;;3.92;3.53;;;;;;;;;;4951784;29;20086;-75
2021/03/01 13:50:50;;;;;;;3.90;3.50;;;;;;;;;;4952508;28;20510;-74
2021/03/01 13:53:17;;;;;;;3.78;3.17;;;;;;;;;;4918552;29;20399;-76
2021/03/01 13:55:44;;;;;;;3.95;3.40;;;;;;;;;;4934061;29;20051;-75
2021/03/01 13:58:13;;;;;;;5.63;3.45;;;;;;;;;;4925912;28;20527;-74
2021/03/01 14:00:40;;;;;;;4.30;3.35;;;;;;;;;;4914318;29;20044;-76
2021/03/01 14:03:18;;;;;;;4.28;3.50;;;;;;;;;;4933162;28;20149;-72
2021/03/01 14:05:50;;;;;;;5.70;3.42;;;;;;;;;;4949783;28;20174;-71
2021/03/01 14:08:25;;;;;;;4.28;3.40;;;;;;;;;;4945532;28;20112;-76
2021/03/01 14:11:07;;;;;;;4.10;3.17;;;;;;;;;;4964310;28;20049;-77
2021/03/01 14:13:44;;;;;;;4.40;3.63;;;;;;;;;;4938038;28;20067;-77
2021/03/01 14:16:25;;;;;;;6.63;4.07;;;;;;;;;;4914596;29;20148;-76
2021/03/01 14:19:02;;;;;;;4.45;3.22;;;;;;;;;;4926402;29;20561;-76
2021/03/01 14:21:30;;;;;;;4.75;3.00;;;;;;;;;;4953116;28;20055;-75
2021/03/01 14:23:59;;;;;;;3.28;2.95;;;;;;;;;;4918562;29;20048;-74
2021/03/01 14:26:32;;;;;;;3.72;2.80;;;;;;;;;;4927099;28;20119;-75
2021/03/01 14:28:59;;;;;;;2.80;2.53;;;;;;;;;;4935786;29;20055;-75
2021/03/01 14:31:45;;;;;;;3.97;3.10;;;;;;;;;;4951819;28;20510;-75
2021/03/01 14:34:11;;;;;;;4.82;3.22;;;;;;;;;;4952729;28;20051;-73
2021/03/01 14:36:39;;;;;;;3.53;2.72;;;;;;;;;;4950372;28;20742;-74
2021/03/01 14:39:29;;;;;;;4.00;2.90;;;;;;;;;;4918754;29;20051;-74
2021/03/01 14:41:56;;;;;;;2.78;2.47;;;;;;;;;;4912255;28;20055;-74
2021/03/01 14:44:23;;;;;;;3.63;2.95;;;;;;;;;;4932630;29;20090;-69
2021/03/01 14:46:49;;;;;;;2.90;2.47;;;;;;;;;;4950563;28;20430;-72
2021/03/01 14:49:15;;;;;;;4.18;2.88;;;;;;;;;;4950787;28;20062;-72
2021/03/01 14:51:42;;;;;;;4.15;3.10;;;;;;;;;;4951351;28;20079;-73
2021/03/01 14:54:09;;;;;;;2.88;2.40;;;;;;;;;;4950737;28;20510;-76
2021/03/01 14:56:37;;;;;;;2.88;2.60;;;;;;;;;;4950874;28;20082;-74